Bonneau, South Carolina
Current Conditions -  °F | °C
As of 3:35 AM on Monday 24 Nov 2014 (Local Time) from KMKS Reporting Station
Overcast Overcast  
Wind Chill: 66°   Ceiling: 600
Heat Index: 66°   Visibility: 10mi
Dew Point: 66°   Wind: 5mph
Humidity: 100%   Direction: 190°S
Pressure: 29.82"   Gusts: NA
Location:  33.31°N, 79.96°W
Report Text: KMKS 240835Z AUTO 19004KT 10SM BKN006 OVC020 19/19 A2982 RMK AO2 LTG DSNT SE
Loading
Personal Weather Stations






























Interactive Weather Map New forecast layout! Learn more

10-Day Weather Forecast

Advertisements
Track Severe Weather on mobile